sensor_id;sensor_type;location;lat;lon;timestamp;pressure;altitude;pressure_sealevel;temperature
19644;BMP180;9970;-36.854;174.870;2022-12-29T00:02:12;101982.00;;;25.90
19644;BMP180;9970;-36.854;174.870;2022-12-29T00:04:50;101978.00;;;25.90
19644;BMP180;9970;-36.854;174.870;2022-12-29T00:07:23;101969.00;;;25.90
19644;BMP180;9970;-36.854;174.870;2022-12-29T00:09:56;101975.00;;;26.00
19644;BMP180;9970;-36.854;174.870;2022-12-29T00:12:28;101974.00;;;26.00
19644;BMP180;9970;-36.854;174.870;2022-12-29T00:15:03;101967.00;;;26.00
19644;BMP180;9970;-36.854;174.870;2022-12-29T00:17:54;101966.00;;;26.00
19644;BMP180;9970;-36.854;174.870;2022-12-29T00:20:27;101972.00;;;26.10
19644;BMP180;9970;-36.854;174.870;2022-12-29T00:23:20;101970.00;;;26.10
19644;BMP180;9970;-36.854;174.870;2022-12-29T00:26:16;101964.00;;;26.10
19644;BMP180;9970;-36.854;174.870;2022-12-29T00:29:03;101954.00;;;26.10
19644;BMP180;9970;-36.854;174.870;2022-12-29T00:31:53;101948.00;;;26.10
19644;BMP180;9970;-36.854;174.870;2022-12-29T00:34:43;101953.00;;;26.10
19644;BMP180;9970;-36.854;174.870;2022-12-29T00:37:33;101947.00;;;26.10
19644;BMP180;9970;-36.854;174.870;2022-12-29T00:40:23;101943.00;;;26.10
19644;BMP180;9970;-36.854;174.870;2022-12-29T00:43:14;101937.00;;;26.20
19644;BMP180;9970;-36.854;174.870;2022-12-29T00:46:04;101930.00;;;26.20
19644;BMP180;9970;-36.854;174.870;2022-12-29T00:48:38;101937.00;;;26.20
19644;BMP180;9970;-36.854;174.870;2022-12-29T00:51:31;101930.00;;;26.20
19644;BMP180;9970;-36.854;174.870;2022-12-29T00:54:04;101931.00;;;26.20
19644;BMP180;9970;-36.854;174.870;2022-12-29T00:56:37;101921.00;;;26.20
19644;BMP180;9970;-36.854;174.870;2022-12-29T00:59:11;101922.00;;;26.20
19644;BMP180;9970;-36.854;174.870;2022-12-29T01:01:45;101923.00;;;26.20
19644;BMP180;9970;-36.854;174.870;2022-12-29T01:04:19;101919.00;;;26.30
19644;BMP180;9970;-36.854;174.870;2022-12-29T01:06:53;101912.00;;;26.30
19644;BMP180;9970;-36.854;174.870;2022-12-29T01:09:26;101907.00;;;26.30
19644;BMP180;9970;-36.854;174.870;2022-12-29T01:12:16;101902.00;;;26.30
19644;BMP180;9970;-36.854;174.870;2022-12-29T01:14:50;101902.00;;;26.30
19644;BMP180;9970;-36.854;174.870;2022-12-29T01:17:24;101900.00;;;26.30
19644;BMP180;9970;-36.854;174.870;2022-12-29T01:19:56;101895.00;;;26.30
19644;BMP180;9970;-36.854;174.870;2022-12-29T01:22:30;101903.00;;;26.30
19644;BMP180;9970;-36.854;174.870;2022-12-29T01:25:03;101894.00;;;26.30
19644;BMP180;9970;-36.854;174.870;2022-12-29T01:27:36;101881.00;;;26.30
19644;BMP180;9970;-36.854;174.870;2022-12-29T01:30:10;101881.00;;;26.40
19644;BMP180;9970;-36.854;174.870;2022-12-29T01:32:42;101880.00;;;26.30
19644;BMP180;9970;-36.854;174.870;2022-12-29T01:35:18;101877.00;;;26.30
19644;BMP180;9970;-36.854;174.870;2022-12-29T01:37:50;101875.00;;;26.20
19644;BMP180;9970;-36.854;174.870;2022-12-29T01:40:24;101875.00;;;26.20
19644;BMP180;9970;-36.854;174.870;2022-12-29T01:42:57;101882.00;;;26.20
19644;BMP180;9970;-36.854;174.870;2022-12-29T01:45:29;101881.00;;;26.10
19644;BMP180;9970;-36.854;174.870;2022-12-29T01:48:03;101886.00;;;26.10
19644;BMP180;9970;-36.854;174.870;2022-12-29T01:50:50;101875.00;;;26.10
19644;BMP180;9970;-36.854;174.870;2022-12-29T01:53:26;101871.00;;;26.10
19644;BMP180;9970;-36.854;174.870;2022-12-29T01:56:00;101874.00;;;26.10
19644;BMP180;9970;-36.854;174.870;2022-12-29T01:58:36;101864.00;;;26.10
19644;BMP180;9970;-36.854;174.870;2022-12-29T02:01:09;101862.00;;;26.00
19644;BMP180;9970;-36.854;174.870;2022-12-29T02:03:42;101865.00;;;26.00
19644;BMP180;9970;-36.854;174.870;2022-12-29T02:06:22;101858.00;;;26.00
19644;BMP180;9970;-36.854;174.870;2022-12-29T02:08:53;101864.00;;;26.00
19644;BMP180;9970;-36.854;174.870;2022-12-29T02:11:28;101854.00;;;26.00
19644;BMP180;9970;-36.854;174.870;2022-12-29T02:14:05;101861.00;;;26.00
19644;BMP180;9970;-36.854;174.870;2022-12-29T02:19:42;101852.00;;;25.90
19644;BMP180;9970;-36.854;174.870;2022-12-29T02:22:27;101852.00;;;25.90
19644;BMP180;9970;-36.854;174.870;2022-12-29T02:31:22;101841.00;;;25.90
19644;BMP180;9970;-36.854;174.870;2022-12-29T02:39:19;101832.00;;;25.90
19644;BMP180;9970;-36.854;174.870;2022-12-29T02:41:59;101829.00;;;25.90
19644;BMP180;9970;-36.854;174.870;2022-12-29T02:45:05;101837.00;;;25.80
19644;BMP180;9970;-36.854;174.870;2022-12-29T02:50:42;101828.00;;;25.70
19644;BMP180;9970;-36.854;174.870;2022-12-29T02:53:14;101823.00;;;25.60
19644;BMP180;9970;-36.854;174.870;2022-12-29T02:55:51;101822.00;;;25.60
19644;BMP180;9970;-36.854;174.870;2022-12-29T02:58:24;101820.00;;;25.50
19644;BMP180;9970;-36.854;174.870;2022-12-29T03:04:12;101813.00;;;25.50
19644;BMP180;9970;-36.854;174.870;2022-12-29T03:06:55;101807.00;;;25.50
19644;BMP180;9970;-36.854;174.870;2022-12-29T03:09:36;101807.00;;;25.40
19644;BMP180;9970;-36.854;174.870;2022-12-29T03:12:34;101807.00;;;25.40
19644;BMP180;9970;-36.854;174.870;2022-12-29T03:15:33;101812.00;;;25.40
19644;BMP180;9970;-36.854;174.870;2022-12-29T03:18:21;101793.00;;;25.40
19644;BMP180;9970;-36.854;174.870;2022-12-29T03:21:02;101797.00;;;25.40
19644;BMP180;9970;-36.854;174.870;2022-12-29T03:23:30;101791.00;;;25.40
19644;BMP180;9970;-36.854;174.870;2022-12-29T03:26:05;101798.00;;;25.40
19644;BMP180;9970;-36.854;174.870;2022-12-29T03:28:44;101803.00;;;25.40
19644;BMP180;9970;-36.854;174.870;2022-12-29T03:31:17;101792.00;;;25.40
19644;BMP180;9970;-36.854;174.870;2022-12-29T03:33:51;101794.00;;;25.40
19644;BMP180;9970;-36.854;174.870;2022-12-29T03:36:32;101785.00;;;25.40
19644;BMP180;9970;-36.854;174.870;2022-12-29T03:39:09;101778.00;;;25.40
19644;BMP180;9970;-36.854;174.870;2022-12-29T03:41:46;101778.00;;;25.30
19644;BMP180;9970;-36.854;174.870;2022-12-29T03:44:21;101778.00;;;25.30
19644;BMP180;9970;-36.854;174.870;2022-12-29T03:46:53;101776.00;;;25.30
19644;BMP180;9970;-36.854;174.870;2022-12-29T03:49:26;101775.00;;;25.30
19644;BMP180;9970;-36.854;174.870;2022-12-29T03:51:59;101776.00;;;25.30
19644;BMP180;9970;-36.854;174.870;2022-12-29T03:54:32;101772.00;;;25.30
19644;BMP180;9970;-36.854;174.870;2022-12-29T03:57:05;101764.00;;;25.30
19644;BMP180;9970;-36.854;174.870;2022-12-29T03:59:38;101771.00;;;25.30
19644;BMP180;9970;-36.854;174.870;2022-12-29T04:02:10;101778.00;;;25.30
19644;BMP180;9970;-36.854;174.870;2022-12-29T04:04:44;101765.00;;;25.30
19644;BMP180;9970;-36.854;174.870;2022-12-29T04:07:17;101774.00;;;25.30
19644;BMP180;9970;-36.854;174.870;2022-12-29T04:09:50;101759.00;;;25.40
19644;BMP180;9970;-36.854;174.870;2022-12-29T04:12:23;101761.00;;;25.40
19644;BMP180;9970;-36.854;174.870;2022-12-29T04:14:56;101763.00;;;25.40
19644;BMP180;9970;-36.854;174.870;2022-12-29T04:17:29;101756.00;;;25.40
19644;BMP180;9970;-36.854;174.870;2022-12-29T04:20:02;101760.00;;;25.40
19644;BMP180;9970;-36.854;174.870;2022-12-29T04:23:07;101759.00;;;25.40
19644;BMP180;9970;-36.854;174.870;2022-12-29T04:25:35;101749.00;;;25.40
19644;BMP180;9970;-36.854;174.870;2022-12-29T04:28:08;101748.00;;;25.30
19644;BMP180;9970;-36.854;174.870;2022-12-29T04:30:43;101749.00;;;25.30
19644;BMP180;9970;-36.854;174.870;2022-12-29T04:33:16;101742.00;;;25.30
19644;BMP180;9970;-36.854;174.870;2022-12-29T04:35:49;101743.00;;;25.30
19644;BMP180;9970;-36.854;174.870;2022-12-29T04:38:24;101747.00;;;25.30
19644;BMP180;9970;-36.854;174.870;2022-12-29T04:40:58;101744.00;;;25.20
19644;BMP180;9970;-36.854;174.870;2022-12-29T04:43:31;101746.00;;;25.20
19644;BMP180;9970;-36.854;174.870;2022-12-29T04:46:04;101737.00;;;25.20
19644;BMP180;9970;-36.854;174.870;2022-12-29T04:48:36;101737.00;;;25.20
19644;BMP180;9970;-36.854;174.870;2022-12-29T04:51:09;101728.00;;;25.10
19644;BMP180;9970;-36.854;174.870;2022-12-29T04:53:42;101726.00;;;25.10
19644;BMP180;9970;-36.854;174.870;2022-12-29T04:56:15;101729.00;;;25.10
19644;BMP180;9970;-36.854;174.870;2022-12-29T04:58:48;101735.00;;;25.10
19644;BMP180;9970;-36.854;174.870;2022-12-29T05:01:21;101733.00;;;25.10
19644;BMP180;9970;-36.854;174.870;2022-12-29T05:03:54;101721.00;;;25.00
19644;BMP180;9970;-36.854;174.870;2022-12-29T05:06:27;101729.00;;;25.00
19644;BMP180;9970;-36.854;174.870;2022-12-29T05:09:00;101730.00;;;25.00
19644;BMP180;9970;-36.854;174.870;2022-12-29T05:11:36;101733.00;;;25.00
19644;BMP180;9970;-36.854;174.870;2022-12-29T05:14:09;101714.00;;;25.00
19644;BMP180;9970;-36.854;174.870;2022-12-29T05:16:43;101720.00;;;25.00
19644;BMP180;9970;-36.854;174.870;2022-12-29T05:19:35;101713.00;;;25.00
19644;BMP180;9970;-36.854;174.870;2022-12-29T05:22:09;101721.00;;;24.90
19644;BMP180;9970;-36.854;174.870;2022-12-29T05:24:42;101717.00;;;24.90
19644;BMP180;9970;-36.854;174.870;2022-12-29T05:27:15;101722.00;;;24.90
19644;BMP180;9970;-36.854;174.870;2022-12-29T05:29:48;101714.00;;;24.90
19644;BMP180;9970;-36.854;174.870;2022-12-29T05:32:21;101723.00;;;24.90
19644;BMP180;9970;-36.854;174.870;2022-12-29T05:34:54;101723.00;;;24.90
19644;BMP180;9970;-36.854;174.870;2022-12-29T05:37:27;101733.00;;;24.90
19644;BMP180;9970;-36.854;174.870;2022-12-29T05:40:01;101731.00;;;24.90
19644;BMP180;9970;-36.854;174.870;2022-12-29T05:42:34;101729.00;;;24.80
19644;BMP180;9970;-36.854;174.870;2022-12-29T05:45:08;101729.00;;;24.80
19644;BMP180;9970;-36.854;174.870;2022-12-29T05:47:41;101735.00;;;24.80
19644;BMP180;9970;-36.854;174.870;2022-12-29T05:50:14;101734.00;;;24.80
19644;BMP180;9970;-36.854;174.870;2022-12-29T05:52:46;101734.00;;;24.70
19644;BMP180;9970;-36.854;174.870;2022-12-29T05:55:20;101730.00;;;24.70
19644;BMP180;9970;-36.854;174.870;2022-12-29T05:57:53;101733.00;;;24.70
19644;BMP180;9970;-36.854;174.870;2022-12-29T06:00:26;101739.00;;;24.70
19644;BMP180;9970;-36.854;174.870;2022-12-29T06:02:59;101745.00;;;24.70
19644;BMP180;9970;-36.854;174.870;2022-12-29T06:05:32;101735.00;;;24.70
19644;BMP180;9970;-36.854;174.870;2022-12-29T06:08:05;101750.00;;;24.70
19644;BMP180;9970;-36.854;174.870;2022-12-29T06:10:38;101743.00;;;24.60
19644;BMP180;9970;-36.854;174.870;2022-12-29T06:13:11;101748.00;;;24.60
19644;BMP180;9970;-36.854;174.870;2022-12-29T06:15:47;101745.00;;;24.60
19644;BMP180;9970;-36.854;174.870;2022-12-29T06:18:19;101746.00;;;24.50
19644;BMP180;9970;-36.854;174.870;2022-12-29T06:20:52;101748.00;;;24.50
19644;BMP180;9970;-36.854;174.870;2022-12-29T06:23:25;101745.00;;;24.50
19644;BMP180;9970;-36.854;174.870;2022-12-29T06:25:58;101748.00;;;24.50
19644;BMP180;9970;-36.854;174.870;2022-12-29T06:28:33;101752.00;;;24.40
19644;BMP180;9970;-36.854;174.870;2022-12-29T06:31:10;101750.00;;;24.40
19644;BMP180;9970;-36.854;174.870;2022-12-29T06:33:57;101758.00;;;24.40
19644;BMP180;9970;-36.854;174.870;2022-12-29T06:36:32;101750.00;;;24.40
19644;BMP180;9970;-36.854;174.870;2022-12-29T06:39:05;101748.00;;;24.30
19644;BMP180;9970;-36.854;174.870;2022-12-29T06:41:38;101759.00;;;24.30
19644;BMP180;9970;-36.854;174.870;2022-12-29T06:44:11;101748.00;;;24.30
19644;BMP180;9970;-36.854;174.870;2022-12-29T06:46:44;101756.00;;;24.30
19644;BMP180;9970;-36.854;174.870;2022-12-29T06:49:17;101760.00;;;24.30
19644;BMP180;9970;-36.854;174.870;2022-12-29T06:51:50;101760.00;;;24.20
19644;BMP180;9970;-36.854;174.870;2022-12-29T06:54:23;101762.00;;;24.20
19644;BMP180;9970;-36.854;174.870;2022-12-29T06:56:55;101760.00;;;24.20
19644;BMP180;9970;-36.854;174.870;2022-12-29T06:59:29;101756.00;;;24.10
19644;BMP180;9970;-36.854;174.870;2022-12-29T07:02:02;101760.00;;;24.10
19644;BMP180;9970;-36.854;174.870;2022-12-29T07:04:55;101764.00;;;24.10
19644;BMP180;9970;-36.854;174.870;2022-12-29T07:07:28;101768.00;;;24.00
19644;BMP180;9970;-36.854;174.870;2022-12-29T07:10:01;101768.00;;;24.00
19644;BMP180;9970;-36.854;174.870;2022-12-29T07:12:34;101769.00;;;23.90
19644;BMP180;9970;-36.854;174.870;2022-12-29T07:15:08;101764.00;;;23.90
19644;BMP180;9970;-36.854;174.870;2022-12-29T07:17:41;101766.00;;;23.90
19644;BMP180;9970;-36.854;174.870;2022-12-29T07:20:13;101758.00;;;23.90
19644;BMP180;9970;-36.854;174.870;2022-12-29T07:22:47;101759.00;;;23.90
19644;BMP180;9970;-36.854;174.870;2022-12-29T07:25:20;101762.00;;;23.90
19644;BMP180;9970;-36.854;174.870;2022-12-29T07:27:53;101766.00;;;23.80
19644;BMP180;9970;-36.854;174.870;2022-12-29T07:30:26;101773.00;;;23.80
19644;BMP180;9970;-36.854;174.870;2022-12-29T07:32:59;101772.00;;;23.80
19644;BMP180;9970;-36.854;174.870;2022-12-29T07:35:33;101770.00;;;23.70
19644;BMP180;9970;-36.854;174.870;2022-12-29T07:38:05;101776.00;;;23.70
19644;BMP180;9970;-36.854;174.870;2022-12-29T07:40:38;101782.00;;;23.70
19644;BMP180;9970;-36.854;174.870;2022-12-29T07:43:11;101781.00;;;23.70
19644;BMP180;9970;-36.854;174.870;2022-12-29T07:45:44;101775.00;;;23.60
19644;BMP180;9970;-36.854;174.870;2022-12-29T07:48:17;101775.00;;;23.60
19644;BMP180;9970;-36.854;174.870;2022-12-29T07:50:50;101771.00;;;23.60
19644;BMP180;9970;-36.854;174.870;2022-12-29T07:53:23;101779.00;;;23.60
19644;BMP180;9970;-36.854;174.870;2022-12-29T07:55:56;101771.00;;;23.50
19644;BMP180;9970;-36.854;174.870;2022-12-29T07:58:29;101774.00;;;23.50
19644;BMP180;9970;-36.854;174.870;2022-12-29T08:01:02;101778.00;;;23.50
19644;BMP180;9970;-36.854;174.870;2022-12-29T08:03:37;101783.00;;;23.50
19644;BMP180;9970;-36.854;174.870;2022-12-29T08:06:11;101789.00;;;23.40
19644;BMP180;9970;-36.854;174.870;2022-12-29T08:08:44;101782.00;;;23.40
19644;BMP180;9970;-36.854;174.870;2022-12-29T08:11:17;101793.00;;;23.40
19644;BMP180;9970;-36.854;174.870;2022-12-29T08:13:51;101796.00;;;23.40
19644;BMP180;9970;-36.854;174.870;2022-12-29T08:16:23;101790.00;;;23.30
19644;BMP180;9970;-36.854;174.870;2022-12-29T08:18:57;101800.00;;;23.30
19644;BMP180;9970;-36.854;174.870;2022-12-29T08:21:30;101807.00;;;23.30
19644;BMP180;9970;-36.854;174.870;2022-12-29T08:24:08;101803.00;;;23.20
19644;BMP180;9970;-36.854;174.870;2022-12-29T08:26:41;101797.00;;;23.20
19644;BMP180;9970;-36.854;174.870;2022-12-29T08:29:14;101803.00;;;23.20
19644;BMP180;9970;-36.854;174.870;2022-12-29T08:31:47;101807.00;;;23.20
19644;BMP180;9970;-36.854;174.870;2022-12-29T08:34:20;101810.00;;;23.20
19644;BMP180;9970;-36.854;174.870;2022-12-29T08:36:53;101809.00;;;23.20
19644;BMP180;9970;-36.854;174.870;2022-12-29T08:39:26;101804.00;;;23.10
19644;BMP180;9970;-36.854;174.870;2022-12-29T08:41:59;101810.00;;;23.10
19644;BMP180;9970;-36.854;174.870;2022-12-29T08:44:32;101812.00;;;23.10
19644;BMP180;9970;-36.854;174.870;2022-12-29T08:47:05;101813.00;;;23.10
19644;BMP180;9970;-36.854;174.870;2022-12-29T08:49:39;101805.00;;;23.10
19644;BMP180;9970;-36.854;174.870;2022-12-29T08:52:11;101802.00;;;23.10
19644;BMP180;9970;-36.854;174.870;2022-12-29T08:54:44;101806.00;;;23.10
19644;BMP180;9970;-36.854;174.870;2022-12-29T08:57:17;101815.00;;;23.10
19644;BMP180;9970;-36.854;174.870;2022-12-29T08:59:50;101807.00;;;23.00
19644;BMP180;9970;-36.854;174.870;2022-12-29T09:02:22;101806.00;;;23.00
19644;BMP180;9970;-36.854;174.870;2022-12-29T09:04:56;101810.00;;;23.00
19644;BMP180;9970;-36.854;174.870;2022-12-29T09:07:30;101815.00;;;23.00
19644;BMP180;9970;-36.854;174.870;2022-12-29T09:10:04;101819.00;;;23.00
19644;BMP180;9970;-36.854;174.870;2022-12-29T09:12:37;101814.00;;;23.00
19644;BMP180;9970;-36.854;174.870;2022-12-29T09:15:10;101829.00;;;23.00
19644;BMP180;9970;-36.854;174.870;2022-12-29T09:17:44;101818.00;;;23.00
19644;BMP180;9970;-36.854;174.870;2022-12-29T09:20:18;101815.00;;;22.90
19644;BMP180;9970;-36.854;174.870;2022-12-29T09:22:52;101815.00;;;22.90
19644;BMP180;9970;-36.854;174.870;2022-12-29T09:25:25;101826.00;;;22.90
19644;BMP180;9970;-36.854;174.870;2022-12-29T09:27:57;101829.00;;;22.80
19644;BMP180;9970;-36.854;174.870;2022-12-29T09:30:30;101826.00;;;22.80
19644;BMP180;9970;-36.854;174.870;2022-12-29T09:33:03;101830.00;;;22.80
19644;BMP180;9970;-36.854;174.870;2022-12-29T09:35:36;101823.00;;;22.80
19644;BMP180;9970;-36.854;174.870;2022-12-29T09:38:09;101830.00;;;22.70
19644;BMP180;9970;-36.854;174.870;2022-12-29T09:40:42;101827.00;;;22.70
19644;BMP180;9970;-36.854;174.870;2022-12-29T09:43:25;101836.00;;;22.70
19644;BMP180;9970;-36.854;174.870;2022-12-29T09:48:55;101826.00;;;22.60
19644;BMP180;9970;-36.854;174.870;2022-12-29T09:51:24;101823.00;;;22.50
19644;BMP180;9970;-36.854;174.870;2022-12-29T09:54:00;101829.00;;;22.50
19644;BMP180;9970;-36.854;174.870;2022-12-29T09:56:33;101823.00;;;22.50
19644;BMP180;9970;-36.854;174.870;2022-12-29T09:59:26;101828.00;;;22.50
19644;BMP180;9970;-36.854;174.870;2022-12-29T10:02:12;101829.00;;;22.50
19644;BMP180;9970;-36.854;174.870;2022-12-29T10:04:40;101830.00;;;22.40
19644;BMP180;9970;-36.854;174.870;2022-12-29T10:12:53;101816.00;;;22.30
19644;BMP180;9970;-36.854;174.870;2022-12-29T10:21:57;101809.00;;;22.20
19644;BMP180;9970;-36.854;174.870;2022-12-29T10:24:28;101797.00;;;22.10
19644;BMP180;9970;-36.854;174.870;2022-12-29T10:27:02;101807.00;;;22.10
19644;BMP180;9970;-36.854;174.870;2022-12-29T10:29:37;101803.00;;;22.10
19644;BMP180;9970;-36.854;174.870;2022-12-29T10:32:17;101802.00;;;22.10
19644;BMP180;9970;-36.854;174.870;2022-12-29T10:34:47;101806.00;;;22.10
19644;BMP180;9970;-36.854;174.870;2022-12-29T10:40:11;101802.00;;;22.10
19644;BMP180;9970;-36.854;174.870;2022-12-29T10:42:40;101791.00;;;22.10
19644;BMP180;9970;-36.854;174.870;2022-12-29T10:45:17;101795.00;;;22.10
19644;BMP180;9970;-36.854;174.870;2022-12-29T10:47:56;101789.00;;;22.10
19644;BMP180;9970;-36.854;174.870;2022-12-29T10:50:28;101789.00;;;22.10
19644;BMP180;9970;-36.854;174.870;2022-12-29T10:53:02;101787.00;;;22.10
19644;BMP180;9970;-36.854;174.870;2022-12-29T10:55:37;101780.00;;;22.10
19644;BMP180;9970;-36.854;174.870;2022-12-29T10:58:11;101784.00;;;22.10
19644;BMP180;9970;-36.854;174.870;2022-12-29T11:00:52;101771.00;;;22.00
19644;BMP180;9970;-36.854;174.870;2022-12-29T11:03:41;101771.00;;;22.00
19644;BMP180;9970;-36.854;174.870;2022-12-29T11:06:26;101772.00;;;22.00
19644;BMP180;9970;-36.854;174.870;2022-12-29T11:09:12;101781.00;;;22.00
19644;BMP180;9970;-36.854;174.870;2022-12-29T11:11:44;101770.00;;;22.00
19644;BMP180;9970;-36.854;174.870;2022-12-29T11:14:26;101762.00;;;22.00
19644;BMP180;9970;-36.854;174.870;2022-12-29T11:17:03;101772.00;;;22.00
19644;BMP180;9970;-36.854;174.870;2022-12-29T11:19:36;101773.00;;;21.90
19644;BMP180;9970;-36.854;174.870;2022-12-29T11:22:22;101781.00;;;21.90
19644;BMP180;9970;-36.854;174.870;2022-12-29T11:25:05;101773.00;;;22.00
19644;BMP180;9970;-36.854;174.870;2022-12-29T11:27:30;101774.00;;;22.00
19644;BMP180;9970;-36.854;174.870;2022-12-29T11:30:11;101773.00;;;22.00
19644;BMP180;9970;-36.854;174.870;2022-12-29T11:32:41;101771.00;;;22.00
19644;BMP180;9970;-36.854;174.870;2022-12-29T11:36:17;101774.00;;;22.00
19644;BMP180;9970;-36.854;174.870;2022-12-29T11:37:59;101767.00;;;22.00
19644;BMP180;9970;-36.854;174.870;2022-12-29T11:40:37;101782.00;;;22.00
19644;BMP180;9970;-36.854;174.870;2022-12-29T11:43:11;101779.00;;;22.00
19644;BMP180;9970;-36.854;174.870;2022-12-29T11:45:44;101766.00;;;22.00
19644;BMP180;9970;-36.854;174.870;2022-12-29T11:48:20;101771.00;;;22.00
19644;BMP180;9970;-36.854;174.870;2022-12-29T11:50:53;101770.00;;;21.90
19644;BMP180;9970;-36.854;174.870;2022-12-29T11:53:41;101761.00;;;21.90
19644;BMP180;9970;-36.854;174.870;2022-12-29T11:56:17;101759.00;;;21.90
19644;BMP180;9970;-36.854;174.870;2022-12-29T11:58:51;101755.00;;;21.90
19644;BMP180;9970;-36.854;174.870;2022-12-29T12:01:40;101757.00;;;21.90
19644;BMP180;9970;-36.854;174.870;2022-12-29T12:04:13;101748.00;;;21.80
19644;BMP180;9970;-36.854;174.870;2022-12-29T12:09:37;101731.00;;;21.80
19644;BMP180;9970;-36.854;174.870;2022-12-29T12:12:20;101737.00;;;21.80
19644;BMP180;9970;-36.854;174.870;2022-12-29T12:14:58;101733.00;;;21.80
19644;BMP180;9970;-36.854;174.870;2022-12-29T12:17:37;101729.00;;;21.80
19644;BMP180;9970;-36.854;174.870;2022-12-29T12:20:23;101731.00;;;21.80
19644;BMP180;9970;-36.854;174.870;2022-12-29T12:25:38;101728.00;;;21.70
19644;BMP180;9970;-36.854;174.870;2022-12-29T12:28:20;101725.00;;;21.70
19644;BMP180;9970;-36.854;174.870;2022-12-29T12:30:55;101725.00;;;21.70
19644;BMP180;9970;-36.854;174.870;2022-12-29T12:33:29;101714.00;;;21.70
19644;BMP180;9970;-36.854;174.870;2022-12-29T12:36:31;101728.00;;;21.70
19644;BMP180;9970;-36.854;174.870;2022-12-29T12:39:11;101723.00;;;21.70
19644;BMP180;9970;-36.854;174.870;2022-12-29T12:42:21;101726.00;;;21.70
19644;BMP180;9970;-36.854;174.870;2022-12-29T12:47:50;101710.00;;;21.60
19644;BMP180;9970;-36.854;174.870;2022-12-29T12:51:25;101706.00;;;21.60
19644;BMP180;9970;-36.854;174.870;2022-12-29T12:58:52;101706.00;;;21.50
19644;BMP180;9970;-36.854;174.870;2022-12-29T13:01:37;101696.00;;;21.50
19644;BMP180;9970;-36.854;174.870;2022-12-29T13:04:24;101684.00;;;21.50
19644;BMP180;9970;-36.854;174.870;2022-12-29T13:07:06;101684.00;;;21.40
19644;BMP180;9970;-36.854;174.870;2022-12-29T13:20:49;101680.00;;;21.40
19644;BMP180;9970;-36.854;174.870;2022-12-29T13:29:31;101676.00;;;21.30
19644;BMP180;9970;-36.854;174.870;2022-12-29T13:32:17;101676.00;;;21.30
19644;BMP180;9970;-36.854;174.870;2022-12-29T13:35:05;101672.00;;;21.30
19644;BMP180;9970;-36.854;174.870;2022-12-29T13:37:36;101667.00;;;21.40
19644;BMP180;9970;-36.854;174.870;2022-12-29T13:40:15;101666.00;;;21.40
19644;BMP180;9970;-36.854;174.870;2022-12-29T13:42:53;101666.00;;;21.40
19644;BMP180;9970;-36.854;174.870;2022-12-29T13:45:28;101672.00;;;21.40
19644;BMP180;9970;-36.854;174.870;2022-12-29T13:50:54;101663.00;;;21.40
19644;BMP180;9970;-36.854;174.870;2022-12-29T13:56:13;101653.00;;;21.40
19644;BMP180;9970;-36.854;174.870;2022-12-29T14:02:00;101638.00;;;21.30
19644;BMP180;9970;-36.854;174.870;2022-12-29T14:04:36;101645.00;;;21.30
19644;BMP180;9970;-36.854;174.870;2022-12-29T14:07:17;101640.00;;;21.30
19644;BMP180;9970;-36.854;174.870;2022-12-29T14:09:50;101646.00;;;21.20
19644;BMP180;9970;-36.854;174.870;2022-12-29T14:15:25;101640.00;;;21.20
19644;BMP180;9970;-36.854;174.870;2022-12-29T14:20:37;101638.00;;;21.20
19644;BMP180;9970;-36.854;174.870;2022-12-29T14:28:48;101633.00;;;21.10
19644;BMP180;9970;-36.854;174.870;2022-12-29T14:39:43;101620.00;;;21.10
19644;BMP180;9970;-36.854;174.870;2022-12-29T14:42:19;101624.00;;;21.00
19644;BMP180;9970;-36.854;174.870;2022-12-29T14:47:35;101612.00;;;21.00
19644;BMP180;9970;-36.854;174.870;2022-12-29T14:55:54;101598.00;;;20.90
19644;BMP180;9970;-36.854;174.870;2022-12-29T14:58:29;101605.00;;;20.90
19644;BMP180;9970;-36.854;174.870;2022-12-29T15:01:03;101606.00;;;20.90
19644;BMP180;9970;-36.854;174.870;2022-12-29T15:03:43;101601.00;;;20.90
19644;BMP180;9970;-36.854;174.870;2022-12-29T15:06:14;101597.00;;;20.80
19644;BMP180;9970;-36.854;174.870;2022-12-29T15:08:54;101591.00;;;20.80
19644;BMP180;9970;-36.854;174.870;2022-12-29T15:14:36;101600.00;;;20.80
19644;BMP180;9970;-36.854;174.870;2022-12-29T15:17:27;101597.00;;;20.80
19644;BMP180;9970;-36.854;174.870;2022-12-29T15:20:13;101598.00;;;20.70
19644;BMP180;9970;-36.854;174.870;2022-12-29T15:22:35;101592.00;;;20.70
19644;BMP180;9970;-36.854;174.870;2022-12-29T15:25:18;101598.00;;;20.70
19644;BMP180;9970;-36.854;174.870;2022-12-29T15:27:53;101595.00;;;20.70
19644;BMP180;9970;-36.854;174.870;2022-12-29T15:30:25;101606.00;;;20.70
19644;BMP180;9970;-36.854;174.870;2022-12-29T15:32:58;101599.00;;;20.70
19644;BMP180;9970;-36.854;174.870;2022-12-29T15:35:33;101591.00;;;20.70
19644;BMP180;9970;-36.854;174.870;2022-12-29T15:38:20;101593.00;;;20.70
19644;BMP180;9970;-36.854;174.870;2022-12-29T15:41:00;101589.00;;;20.70
19644;BMP180;9970;-36.854;174.870;2022-12-29T15:43:36;101587.00;;;20.70
19644;BMP180;9970;-36.854;174.870;2022-12-29T15:46:08;101591.00;;;20.60
19644;BMP180;9970;-36.854;174.870;2022-12-29T15:48:43;101594.00;;;20.60
19644;BMP180;9970;-36.854;174.870;2022-12-29T15:51:31;101598.00;;;20.60
19644;BMP180;9970;-36.854;174.870;2022-12-29T15:53:59;101596.00;;;20.60
19644;BMP180;9970;-36.854;174.870;2022-12-29T15:56:33;101597.00;;;20.60
19644;BMP180;9970;-36.854;174.870;2022-12-29T15:59:17;101586.00;;;20.60
19644;BMP180;9970;-36.854;174.870;2022-12-29T16:01:40;101595.00;;;20.60
19644;BMP180;9970;-36.854;174.870;2022-12-29T16:04:15;101590.00;;;20.60
19644;BMP180;9970;-36.854;174.870;2022-12-29T16:07:04;101587.00;;;20.60
19644;BMP180;9970;-36.854;174.870;2022-12-29T16:09:44;101588.00;;;20.50
19644;BMP180;9970;-36.854;174.870;2022-12-29T16:12:19;101579.00;;;20.50